sensor_id;sensor_type;location;lat;lon;timestamp;pressure;altitude;pressure_sealevel;temperature;humidity
63115;BME280;49208;50.874;6.466;2023-02-17T07:03:14;100833.03;;;9.97;100.00
63115;BME280;49208;50.874;6.466;2023-02-17T07:05:39;100832.97;;;10.00;100.00
63115;BME280;49208;50.874;6.466;2023-02-17T07:08:05;100831.03;;;10.05;100.00
63115;BME280;49208;50.874;6.466;2023-02-17T07:10:32;100833.66;;;10.07;100.00
63115;BME280;49208;50.874;6.466;2023-02-17T07:12:57;100816.78;;;10.08;100.00
63115;BME280;49208;50.874;6.466;2023-02-17T07:15:23;100829.25;;;10.06;100.00
63115;BME280;49208;50.874;6.466;2023-02-17T07:17:49;100824.84;;;10.05;100.00
63115;BME280;49208;50.874;6.466;2023-02-17T07:20:14;100823.19;;;10.01;100.00
63115;BME280;49208;50.874;6.466;2023-02-17T07:22:40;100817.03;;;9.99;100.00
63115;BME280;49208;50.874;6.466;2023-02-17T07:25:06;100820.69;;;9.95;100.00
63115;BME280;49208;50.874;6.466;2023-02-17T07:27:34;100829.53;;;9.95;100.00
63115;BME280;49208;50.874;6.466;2023-02-17T07:29:59;100830.47;;;9.94;100.00
63115;BME280;49208;50.874;6.466;2023-02-17T07:32:25;100832.22;;;9.94;100.00
63115;BME280;49208;50.874;6.466;2023-02-17T07:34:50;100839.34;;;9.93;100.00
63115;BME280;49208;50.874;6.466;2023-02-17T07:37:16;100836.69;;;9.93;100.00
63115;BME280;49208;50.874;6.466;2023-02-17T07:39:41;100820.56;;;9.99;100.00
63115;BME280;49208;50.874;6.466;2023-02-17T07:42:07;100842.69;;;10.00;100.00
63115;BME280;49208;50.874;6.466;2023-02-17T07:44:33;100838.22;;;10.02;100.00
63115;BME280;49208;50.874;6.466;2023-02-17T07:46:59;100841.69;;;10.04;100.00
63115;BME280;49208;50.874;6.466;2023-02-17T07:49:24;100845.28;;;10.03;100.00
63115;BME280;49208;50.874;6.466;2023-02-17T07:51:50;100846.03;;;10.08;100.00
63115;BME280;49208;50.874;6.466;2023-02-17T07:54:15;100851.22;;;10.12;100.00
63115;BME280;49208;50.874;6.466;2023-02-17T07:56:41;100847.66;;;10.14;100.00
63115;BME280;49208;50.874;6.466;2023-02-17T07:59:08;100851.13;;;10.17;100.00
63115;BME280;49208;50.874;6.466;2023-02-17T08:01:33;100855.34;;;10.24;100.00
63115;BME280;49208;50.874;6.466;2023-02-17T08:03:59;100842.84;;;10.28;100.00
63115;BME280;49208;50.874;6.466;2023-02-17T08:06:25;100847.16;;;10.34;100.00
63115;BME280;49208;50.874;6.466;2023-02-17T08:08:50;100855.97;;;10.36;100.00
63115;BME280;49208;50.874;6.466;2023-02-17T08:11:37;100842.53;;;10.40;100.00
63115;BME280;49208;50.874;6.466;2023-02-17T08:14:23;100840.69;;;10.42;100.00
63115;BME280;49208;50.874;6.466;2023-02-17T08:16:48;100834.38;;;10.46;100.00
63115;BME280;49208;50.874;6.466;2023-02-17T08:19:14;100834.41;;;10.45;100.00
63115;BME280;49208;50.874;6.466;2023-02-17T08:21:40;100848.47;;;10.50;100.00
63115;BME280;49208;50.874;6.466;2023-02-17T08:24:05;100838.56;;;10.54;100.00
63115;BME280;49208;50.874;6.466;2023-02-17T08:26:31;100838.53;;;10.55;100.00
63115;BME280;49208;50.874;6.466;2023-02-17T08:28:56;100841.06;;;10.60;100.00
63115;BME280;49208;50.874;6.466;2023-02-17T08:31:25;100833.91;;;10.62;100.00
63115;BME280;49208;50.874;6.466;2023-02-17T08:33:51;100846.19;;;10.66;100.00
63115;BME280;49208;50.874;6.466;2023-02-17T08:36:17;100842.53;;;10.70;100.00
63115;BME280;49208;50.874;6.466;2023-02-17T08:38:44;100844.00;;;10.80;100.00
63115;BME280;49208;50.874;6.466;2023-02-17T08:41:17;100848.25;;;10.87;100.00
63115;BME280;49208;50.874;6.466;2023-02-17T08:43:43;100850.75;;;10.92;100.00
63115;BME280;49208;50.874;6.466;2023-02-17T08:46:10;100856.81;;;10.97;100.00
63115;BME280;49208;50.874;6.466;2023-02-17T08:48:35;100861.06;;;11.03;100.00
63115;BME280;49208;50.874;6.466;2023-02-17T08:51:01;100852.97;;;11.06;100.00
63115;BME280;49208;50.874;6.466;2023-02-17T08:53:27;100857.25;;;11.11;100.00
63115;BME280;49208;50.874;6.466;2023-02-17T08:55:52;100856.19;;;11.17;100.00
63115;BME280;49208;50.874;6.466;2023-02-17T08:58:17;100852.47;;;11.23;100.00
63115;BME280;49208;50.874;6.466;2023-02-17T09:00:43;100857.41;;;11.35;100.00
63115;BME280;49208;50.874;6.466;2023-02-17T09:03:08;100848.31;;;11.41;100.00
63115;BME280;49208;50.874;6.466;2023-02-17T09:05:34;100849.81;;;11.49;100.00
63115;BME280;49208;50.874;6.466;2023-02-17T09:08:00;100857.56;;;11.57;99.59
63115;BME280;49208;50.874;6.466;2023-02-17T09:10:26;100849.28;;;11.66;98.89
63115;BME280;49208;50.874;6.466;2023-02-17T09:12:51;100849.88;;;11.75;98.59
63115;BME280;49208;50.874;6.466;2023-02-17T09:15:17;100837.22;;;11.81;97.75
63115;BME280;49208;50.874;6.466;2023-02-17T09:17:42;100851.03;;;11.94;97.39
63115;BME280;49208;50.874;6.466;2023-02-17T09:20:09;100848.09;;;12.02;96.82
63115;BME280;49208;50.874;6.466;2023-02-17T09:22:35;100839.66;;;12.14;96.38
63115;BME280;49208;50.874;6.466;2023-02-17T09:25:01;100850.81;;;12.25;95.84
63115;BME280;49208;50.874;6.466;2023-02-17T09:27:27;100845.72;;;12.43;94.79
63115;BME280;49208;50.874;6.466;2023-02-17T09:29:52;100859.03;;;12.68;93.66
63115;BME280;49208;50.874;6.466;2023-02-17T09:32:18;100863.78;;;12.83;92.51
63115;BME280;49208;50.874;6.466;2023-02-17T09:34:43;100856.88;;;13.01;92.30
63115;BME280;49208;50.874;6.466;2023-02-17T09:37:18;100849.88;;;13.21;91.77
63115;BME280;49208;50.874;6.466;2023-02-17T09:39:44;100859.09;;;13.36;89.89
63115;BME280;49208;50.874;6.466;2023-02-17T09:42:28;100854.09;;;13.26;89.12
63115;BME280;49208;50.874;6.466;2023-02-17T09:45:14;100845.44;;;13.20;89.42
63115;BME280;49208;50.874;6.466;2023-02-17T09:47:47;100845.00;;;13.08;89.61
63115;BME280;49208;50.874;6.466;2023-02-17T09:50:31;100855.84;;;13.05;89.93
63115;BME280;49208;50.874;6.466;2023-02-17T09:53:03;100844.19;;;13.06;90.28
63115;BME280;49208;50.874;6.466;2023-02-17T09:55:34;100855.81;;;13.29;90.38
63115;BME280;49208;50.874;6.466;2023-02-17T09:58:17;100865.56;;;13.52;89.34
63115;BME280;49208;50.874;6.466;2023-02-17T10:00:50;100870.16;;;13.70;88.01
63115;BME280;49208;50.874;6.466;2023-02-17T10:05:55;100866.44;;;13.95;87.10
63115;BME280;49208;50.874;6.466;2023-02-17T10:08:31;100867.97;;;14.01;86.13
63115;BME280;49208;50.874;6.466;2023-02-17T10:11:03;100862.44;;;14.05;85.66
63115;BME280;49208;50.874;6.466;2023-02-17T10:13:33;100863.56;;;14.20;85.52
63115;BME280;49208;50.874;6.466;2023-02-17T10:16:04;100857.72;;;14.31;85.32
63115;BME280;49208;50.874;6.466;2023-02-17T10:18:38;100871.44;;;14.44;83.68
63115;BME280;49208;50.874;6.466;2023-02-17T10:21:13;100870.56;;;14.43;83.21
63115;BME280;49208;50.874;6.466;2023-02-17T10:23:43;100874.66;;;14.52;83.41
63115;BME280;49208;50.874;6.466;2023-02-17T10:26:55;100855.53;;;14.61;83.65
63115;BME280;49208;50.874;6.466;2023-02-17T10:32:16;100854.81;;;14.77;82.14
63115;BME280;49208;50.874;6.466;2023-02-17T10:40:13;100846.91;;;15.11;81.11
63115;BME280;49208;50.874;6.466;2023-02-17T10:42:39;100864.22;;;15.04;80.11
63115;BME280;49208;50.874;6.466;2023-02-17T10:45:14;100871.28;;;15.07;80.63
63115;BME280;49208;50.874;6.466;2023-02-17T10:47:43;100857.75;;;15.08;80.73
63115;BME280;49208;50.874;6.466;2023-02-17T10:50:20;100863.00;;;15.11;80.90
63115;BME280;49208;50.874;6.466;2023-02-17T10:52:47;100855.88;;;15.10;80.42
63115;BME280;49208;50.874;6.466;2023-02-17T10:55:22;100862.44;;;15.05;79.82
63115;BME280;49208;50.874;6.466;2023-02-17T10:58:12;100853.44;;;14.87;81.03
63115;BME280;49208;50.874;6.466;2023-02-17T11:00:40;100859.13;;;14.79;81.11
63115;BME280;49208;50.874;6.466;2023-02-17T11:03:18;100851.19;;;14.78;81.71
63115;BME280;49208;50.874;6.466;2023-02-17T11:05:43;100858.00;;;14.85;81.46
63115;BME280;49208;50.874;6.466;2023-02-17T11:11:05;100864.41;;;14.62;81.90
63115;BME280;49208;50.874;6.466;2023-02-17T11:13:37;100877.25;;;14.53;82.29
63115;BME280;49208;50.874;6.466;2023-02-17T11:16:05;100861.59;;;14.44;82.34
63115;BME280;49208;50.874;6.466;2023-02-17T11:18:38;100869.78;;;14.41;83.20
63115;BME280;49208;50.874;6.466;2023-02-17T11:21:10;100869.63;;;14.44;83.54
63115;BME280;49208;50.874;6.466;2023-02-17T11:23:50;100869.34;;;14.50;83.33
63115;BME280;49208;50.874;6.466;2023-02-17T11:26:21;100872.19;;;14.47;84.39
63115;BME280;49208;50.874;6.466;2023-02-17T11:28:47;100873.69;;;14.34;83.48
63115;BME280;49208;50.874;6.466;2023-02-17T11:31:26;100862.44;;;14.26;83.58
63115;BME280;49208;50.874;6.466;2023-02-17T11:33:52;100857.63;;;14.13;84.09
63115;BME280;49208;50.874;6.466;2023-02-17T11:36:29;100856.06;;;14.08;84.94
63115;BME280;49208;50.874;6.466;2023-02-17T11:38:55;100848.84;;;14.10;85.13
63115;BME280;49208;50.874;6.466;2023-02-17T11:41:22;100841.63;;;14.12;84.50
63115;BME280;49208;50.874;6.466;2023-02-17T11:43:58;100852.06;;;14.18;83.68
63115;BME280;49208;50.874;6.466;2023-02-17T11:46:40;100844.63;;;14.25;83.72
63115;BME280;49208;50.874;6.466;2023-02-17T11:56:46;100822.31;;;14.45;82.53
63115;BME280;49208;50.874;6.466;2023-02-17T11:59:39;100832.22;;;14.43;82.66
63115;BME280;49208;50.874;6.466;2023-02-17T12:02:38;100816.00;;;14.46;81.73
63115;BME280;49208;50.874;6.466;2023-02-17T12:07:49;100807.06;;;14.66;81.46
63115;BME280;49208;50.874;6.466;2023-02-17T12:10:36;100814.53;;;14.78;81.58
63115;BME280;49208;50.874;6.466;2023-02-17T12:16:13;100790.91;;;15.05;79.70
63115;BME280;49208;50.874;6.466;2023-02-17T12:21:42;100805.03;;;15.09;78.56
63115;BME280;49208;50.874;6.466;2023-02-17T12:24:40;100788.28;;;15.04;78.73
63115;BME280;49208;50.874;6.466;2023-02-17T12:30:32;100786.66;;;15.19;79.59
63115;BME280;49208;50.874;6.466;2023-02-17T12:35:48;100772.50;;;15.51;77.52
63115;BME280;49208;50.874;6.466;2023-02-17T12:38:23;100793.72;;;15.56;76.19
63115;BME280;49208;50.874;6.466;2023-02-17T12:40:54;100780.63;;;15.50;76.20
63115;BME280;49208;50.874;6.466;2023-02-17T12:43:35;100770.44;;;15.39;75.54
63115;BME280;49208;50.874;6.466;2023-02-17T12:46:08;100784.09;;;15.34;75.88
63115;BME280;49208;50.874;6.466;2023-02-17T12:51:03;100762.00;;;15.29;78.00
63115;BME280;49208;50.874;6.466;2023-02-17T12:56:01;100761.84;;;15.50;77.86
63115;BME280;49208;50.874;6.466;2023-02-17T12:58:29;100765.59;;;15.65;75.91
63115;BME280;49208;50.874;6.466;2023-02-17T13:01:03;100761.81;;;15.69;75.40
63115;BME280;49208;50.874;6.466;2023-02-17T13:03:32;100770.56;;;15.72;74.95
63115;BME280;49208;50.874;6.466;2023-02-17T13:08:49;100784.47;;;15.81;75.46
63115;BME280;49208;50.874;6.466;2023-02-17T13:11:30;100779.41;;;15.74;75.51
63115;BME280;49208;50.874;6.466;2023-02-17T13:13:56;100775.22;;;15.69;75.68
63115;BME280;49208;50.874;6.466;2023-02-17T13:16:22;100782.56;;;15.65;75.71
63115;BME280;49208;50.874;6.466;2023-02-17T13:18:50;100786.34;;;15.61;75.74
63115;BME280;49208;50.874;6.466;2023-02-17T13:23:43;100787.44;;;15.57;75.31
63115;BME280;49208;50.874;6.466;2023-02-17T13:28:42;100787.88;;;15.48;76.19
63115;BME280;49208;50.874;6.466;2023-02-17T13:31:18;100791.84;;;15.41;76.46
63115;BME280;49208;50.874;6.466;2023-02-17T13:33:54;100778.00;;;15.31;75.68
63115;BME280;49208;50.874;6.466;2023-02-17T13:41:20;100812.72;;;14.98;77.52
63115;BME280;49208;50.874;6.466;2023-02-17T13:43:46;100828.50;;;14.85;77.99
63115;BME280;49208;50.874;6.466;2023-02-17T13:46:22;100826.34;;;14.74;78.09
63115;BME280;49208;50.874;6.466;2023-02-17T13:49:01;100825.47;;;14.73;78.44
63115;BME280;49208;50.874;6.466;2023-02-17T13:51:28;100825.69;;;14.69;79.66
63115;BME280;49208;50.874;6.466;2023-02-17T13:53:54;100824.88;;;14.67;78.86
63115;BME280;49208;50.874;6.466;2023-02-17T13:56:25;100840.09;;;14.66;78.68
63115;BME280;49208;50.874;6.466;2023-02-17T13:58:51;100831.25;;;14.64;79.37
63115;BME280;49208;50.874;6.466;2023-02-17T14:01:19;100830.63;;;14.59;80.20
63115;BME280;49208;50.874;6.466;2023-02-17T14:03:54;100845.00;;;14.57;79.83
63115;BME280;49208;50.874;6.466;2023-02-17T14:06:35;100840.53;;;14.57;79.16
63115;BME280;49208;50.874;6.466;2023-02-17T14:09:12;100844.31;;;14.51;80.44
63115;BME280;49208;50.874;6.466;2023-02-17T14:11:39;100842.56;;;14.50;79.41
63115;BME280;49208;50.874;6.466;2023-02-17T14:14:06;100847.91;;;14.50;78.03
63115;BME280;49208;50.874;6.466;2023-02-17T14:16:37;100844.44;;;14.48;78.32
63115;BME280;49208;50.874;6.466;2023-02-17T14:19:11;100841.13;;;14.43;79.17
63115;BME280;49208;50.874;6.466;2023-02-17T14:21:42;100840.16;;;14.44;78.81
63115;BME280;49208;50.874;6.466;2023-02-17T14:24:26;100846.41;;;14.45;78.20
63115;BME280;49208;50.874;6.466;2023-02-17T14:26:59;100859.00;;;14.43;78.48
63115;BME280;49208;50.874;6.466;2023-02-17T14:29:24;100848.66;;;14.54;77.92
63115;BME280;49208;50.874;6.466;2023-02-17T14:31:51;100850.59;;;14.50;78.11
63115;BME280;49208;50.874;6.466;2023-02-17T14:34:29;100864.00;;;14.50;78.61
63115;BME280;49208;50.874;6.466;2023-02-17T14:37:24;100861.25;;;14.52;79.49
63115;BME280;49208;50.874;6.466;2023-02-17T14:39:49;100855.03;;;14.51;78.93
63115;BME280;49208;50.874;6.466;2023-02-17T14:42:15;100863.13;;;14.50;79.89
63115;BME280;49208;50.874;6.466;2023-02-17T14:44:40;100859.53;;;14.51;80.72
63115;BME280;49208;50.874;6.466;2023-02-17T14:47:06;100866.59;;;14.52;80.36
63115;BME280;49208;50.874;6.466;2023-02-17T14:49:32;100856.16;;;14.46;81.08
63115;BME280;49208;50.874;6.466;2023-02-17T14:51:57;100864.47;;;14.40;82.05
63115;BME280;49208;50.874;6.466;2023-02-17T14:54:23;100875.47;;;14.33;82.10
63115;BME280;49208;50.874;6.466;2023-02-17T14:57:05;100888.31;;;14.25;82.76
63115;BME280;49208;50.874;6.466;2023-02-17T14:59:31;100880.97;;;14.10;82.49
63115;BME280;49208;50.874;6.466;2023-02-17T15:01:57;100896.75;;;13.95;82.91
63115;BME280;49208;50.874;6.466;2023-02-17T15:04:22;100897.47;;;13.79;81.72
63115;BME280;49208;50.874;6.466;2023-02-17T15:06:49;100896.91;;;13.70;82.56
63115;BME280;49208;50.874;6.466;2023-02-17T15:09:18;100900.03;;;13.60;83.89
63115;BME280;49208;50.874;6.466;2023-02-17T15:11:46;100905.88;;;13.47;84.09
63115;BME280;49208;50.874;6.466;2023-02-17T15:14:17;100916.88;;;13.40;84.84
63115;BME280;49208;50.874;6.466;2023-02-17T15:16:44;100912.75;;;13.31;83.73
63115;BME280;49208;50.874;6.466;2023-02-17T15:19:10;100914.84;;;13.23;84.30
63115;BME280;49208;50.874;6.466;2023-02-17T15:21:37;100910.09;;;13.07;85.11
63115;BME280;49208;50.874;6.466;2023-02-17T15:24:19;100913.88;;;13.02;85.45
63115;BME280;49208;50.874;6.466;2023-02-17T15:26:45;100914.91;;;12.98;85.45
63115;BME280;49208;50.874;6.466;2023-02-17T15:29:19;100922.22;;;12.92;86.18
63115;BME280;49208;50.874;6.466;2023-02-17T15:31:45;100923.38;;;12.85;87.09
63115;BME280;49208;50.874;6.466;2023-02-17T15:34:14;100924.47;;;12.80;87.63
63115;BME280;49208;50.874;6.466;2023-02-17T15:36:40;100925.50;;;12.76;88.34
63115;BME280;49208;50.874;6.466;2023-02-17T15:39:08;100929.28;;;12.70;88.55
63115;BME280;49208;50.874;6.466;2023-02-17T15:41:34;100936.59;;;12.65;88.40
63115;BME280;49208;50.874;6.466;2023-02-17T15:43:59;100941.25;;;12.60;88.24
63115;BME280;49208;50.874;6.466;2023-02-17T15:46:29;100946.69;;;12.57;88.03
63115;BME280;49208;50.874;6.466;2023-02-17T15:48:55;100938.72;;;12.55;88.24
63115;BME280;49208;50.874;6.466;2023-02-17T15:51:20;100947.84;;;12.49;88.45
63115;BME280;49208;50.874;6.466;2023-02-17T15:53:48;100952.47;;;12.44;88.84
63115;BME280;49208;50.874;6.466;2023-02-17T15:56:39;100954.34;;;12.41;88.67
63115;BME280;49208;50.874;6.466;2023-02-17T15:59:10;100951.16;;;12.31;88.44
63115;BME280;49208;50.874;6.466;2023-02-17T16:01:39;100953.81;;;12.31;88.97
63115;BME280;49208;50.874;6.466;2023-02-17T16:04:07;100968.13;;;12.28;88.17
63115;BME280;49208;50.874;6.466;2023-02-17T16:06:34;100980.78;;;12.23;88.63
63115;BME280;49208;50.874;6.466;2023-02-17T16:08:59;100980.91;;;12.20;88.62
63115;BME280;49208;50.874;6.466;2023-02-17T16:11:26;100995.25;;;12.16;88.63
63115;BME280;49208;50.874;6.466;2023-02-17T16:13:52;100991.84;;;12.11;88.88
63115;BME280;49208;50.874;6.466;2023-02-17T16:16:20;101004.50;;;12.06;89.24
63115;BME280;49208;50.874;6.466;2023-02-17T16:18:47;101002.88;;;12.00;90.06
63115;BME280;49208;50.874;6.466;2023-02-17T16:21:12;101002.06;;;11.98;89.95
63115;BME280;49208;50.874;6.466;2023-02-17T16:23:38;101015.56;;;11.93;90.31
63115;BME280;49208;50.874;6.466;2023-02-17T16:26:05;101014.78;;;11.90;90.31
63115;BME280;49208;50.874;6.466;2023-02-17T16:28:37;101016.59;;;11.88;90.69
63115;BME280;49208;50.874;6.466;2023-02-17T16:31:02;101025.72;;;11.81;91.50
63115;BME280;49208;50.874;6.466;2023-02-17T16:33:28;101026.84;;;11.72;92.71
63115;BME280;49208;50.874;6.466;2023-02-17T16:35:53;101032.34;;;11.67;93.82
63115;BME280;49208;50.874;6.466;2023-02-17T16:38:21;101043.22;;;11.60;94.65
63115;BME280;49208;50.874;6.466;2023-02-17T16:40:49;101046.97;;;11.54;95.02
63115;BME280;49208;50.874;6.466;2023-02-17T16:43:18;101049.81;;;11.48;95.99
63115;BME280;49208;50.874;6.466;2023-02-17T16:45:50;101054.44;;;11.41;97.72
63115;BME280;49208;50.874;6.466;2023-02-17T16:48:17;101063.53;;;11.34;98.92
63115;BME280;49208;50.874;6.466;2023-02-17T16:50:42;101060.25;;;11.24;100.00
63115;BME280;49208;50.874;6.466;2023-02-17T16:53:10;101064.06;;;11.16;100.00
63115;BME280;49208;50.874;6.466;2023-02-17T16:55:36;101067.69;;;11.13;100.00
63115;BME280;49208;50.874;6.466;2023-02-17T16:58:03;101075.00;;;11.06;100.00
63115;BME280;49208;50.874;6.466;2023-02-17T17:00:35;101080.38;;;11.03;100.00
63115;BME280;49208;50.874;6.466;2023-02-17T17:03:00;101078.66;;;11.02;100.00
63115;BME280;49208;50.874;6.466;2023-02-17T17:05:27;101076.16;;;10.96;100.00
63115;BME280;49208;50.874;6.466;2023-02-17T17:07:53;101070.88;;;10.95;100.00
63115;BME280;49208;50.874;6.466;2023-02-17T17:10:23;101069.19;;;10.90;100.00
63115;BME280;49208;50.874;6.466;2023-02-17T17:12:48;101072.72;;;10.91;100.00
63115;BME280;49208;50.874;6.466;2023-02-17T17:15:15;101093.25;;;10.87;100.00
63115;BME280;49208;50.874;6.466;2023-02-17T17:18:05;101098.66;;;10.84;100.00
63115;BME280;49208;50.874;6.466;2023-02-17T17:20:34;101088.00;;;10.84;100.00
63115;BME280;49208;50.874;6.466;2023-02-17T17:23:01;101086.22;;;10.85;100.00
63115;BME280;49208;50.874;6.466;2023-02-17T17:25:27;101088.09;;;10.81;100.00
63115;BME280;49208;50.874;6.466;2023-02-17T17:27:54;101088.09;;;10.81;100.00
63115;BME280;49208;50.874;6.466;2023-02-17T17:30:23;101091.63;;;10.82;100.00
63115;BME280;49208;50.874;6.466;2023-02-17T17:32:49;101094.28;;;10.82;100.00
63115;BME280;49208;50.874;6.466;2023-02-17T17:35:15;101093.34;;;10.83;100.00
63115;BME280;49208;50.874;6.466;2023-02-17T17:37:41;101100.50;;;10.81;100.00
63115;BME280;49208;50.874;6.466;2023-02-17T17:40:09;101098.78;;;10.80;100.00
63115;BME280;49208;50.874;6.466;2023-02-17T17:42:38;101097.94;;;10.78;100.00
63115;BME280;49208;50.874;6.466;2023-02-17T17:45:04;101104.16;;;10.77;100.00
63115;BME280;49208;50.874;6.466;2023-02-17T17:47:29;101097.97;;;10.76;100.00
63115;BME280;49208;50.874;6.466;2023-02-17T17:49:55;101112.16;;;10.77;100.00
63115;BME280;49208;50.874;6.466;2023-02-17T17:52:20;101123.78;;;10.74;100.00
63115;BME280;49208;50.874;6.466;2023-02-17T17:54:46;101126.44;;;10.74;100.00
63115;BME280;49208;50.874;6.466;2023-02-17T17:57:11;101112.16;;;10.77;100.00
63115;BME280;49208;50.874;6.466;2023-02-17T17:59:36;101123.78;;;10.74;100.00
63115;BME280;49208;50.874;6.466;2023-02-17T18:02:02;101123.78;;;10.74;100.00
63115;BME280;49208;50.874;6.466;2023-02-17T18:04:28;101129.06;;;10.76;100.00
63115;BME280;49208;50.874;6.466;2023-02-17T18:06:54;101133.53;;;10.75;100.00
63115;BME280;49208;50.874;6.466;2023-02-17T18:09:24;101136.25;;;10.72;100.00
63115;BME280;49208;50.874;6.466;2023-02-17T18:11:52;101144.22;;;10.74;100.00
63115;BME280;49208;50.874;6.466;2023-02-17T18:14:18;101149.59;;;10.70;100.00
63115;BME280;49208;50.874;6.466;2023-02-17T18:16:45;101144.38;;;10.66;100.00
63115;BME280;49208;50.874;6.466;2023-02-17T18:19:13;101145.25;;;10.66;100.00
63115;BME280;49208;50.874;6.466;2023-02-17T18:21:40;101143.53;;;10.65;100.00
63115;BME280;49208;50.874;6.466;2023-02-17T18:24:06;101147.16;;;10.63;100.00
63115;BME280;49208;50.874;6.466;2023-02-17T18:26:32;101156.97;;;10.61;100.00
63115;BME280;49208;50.874;6.466;2023-02-17T18:28:57;101152.50;;;10.61;100.00
63115;BME280;49208;50.874;6.466;2023-02-17T18:31:23;101157.88;;;10.58;100.00
63115;BME280;49208;50.874;6.466;2023-02-17T18:33:52;101162.34;;;10.58;100.00
63115;BME280;49208;50.874;6.466;2023-02-17T18:36:24;101152.63;;;10.57;100.00
63115;BME280;49208;50.874;6.466;2023-02-17T18:38:50;101147.19;;;10.60;100.00
63115;BME280;49208;50.874;6.466;2023-02-17T18:41:21;101171.13;;;10.61;100.00
63115;BME280;49208;50.874;6.466;2023-02-17T18:43:47;101165.84;;;10.60;100.00
63115;BME280;49208;50.874;6.466;2023-02-17T18:46:13;101173.91;;;10.57;100.00
63115;BME280;49208;50.874;6.466;2023-02-17T18:48:38;101170.41;;;10.55;100.00
63115;BME280;49208;50.874;6.466;2023-02-17T18:51:08;101180.16;;;10.54;100.00
63115;BME280;49208;50.874;6.466;2023-02-17T18:53:35;101174.00;;;10.52;100.00
63115;BME280;49208;50.874;6.466;2023-02-17T18:56:00;101181.97;;;10.52;100.00
63115;BME280;49208;50.874;6.466;2023-02-17T18:58:26;101185.69;;;10.46;100.00
63115;BME280;49208;50.874;6.466;2023-02-17T19:00:54;101192.75;;;10.47;100.00
63115;BME280;49208;50.874;6.466;2023-02-17T19:03:20;101198.13;;;10.46;100.00
63115;BME280;49208;50.874;6.466;2023-02-17T19:05:45;101192.84;;;10.44;100.00
63115;BME280;49208;50.874;6.466;2023-02-17T19:08:10;101206.91;;;10.49;100.00
63115;BME280;49208;50.874;6.466;2023-02-17T19:10:36;101209.63;;;10.48;100.00
63115;BME280;49208;50.874;6.466;2023-02-17T19:13:01;101196.34;;;10.46;100.00
63115;BME280;49208;50.874;6.466;2023-02-17T19:15:27;101200.81;;;10.44;100.00
63115;BME280;49208;50.874;6.466;2023-02-17T19:17:56;101213.28;;;10.42;100.00
63115;BME280;49208;50.874;6.466;2023-02-17T19:20:25;101215.13;;;10.39;100.00
63115;BME280;49208;50.874;6.466;2023-02-17T19:22:51;101213.31;;;10.41;100.00
63115;BME280;49208;50.874;6.466;2023-02-17T19:25:17;101212.47;;;10.39;100.00
63115;BME280;49208;50.874;6.466;2023-02-17T19:27:42;101215.13;;;10.39;100.00
63115;BME280;49208;50.874;6.466;2023-02-17T19:30:09;101222.28;;;10.37;100.00
63115;BME280;49208;50.874;6.466;2023-02-17T19:32:35;101224.06;;;10.36;100.00
63115;BME280;49208;50.874;6.466;2023-02-17T19:35:01;101225.00;;;10.34;100.00
63115;BME280;49208;50.874;6.466;2023-02-17T19:37:26;101225.91;;;10.32;100.00
63115;BME280;49208;50.874;6.466;2023-02-17T19:39:52;101228.59;;;10.31;100.00
63115;BME280;49208;50.874;6.466;2023-02-17T19:42:17;101229.50;;;10.31;100.00
63115;BME280;49208;50.874;6.466;2023-02-17T19:44:43;101221.56;;;10.27;100.00
63115;BME280;49208;50.874;6.466;2023-02-17T19:47:08;101221.63;;;10.24;100.00
63115;BME280;49208;50.874;6.466;2023-02-17T19:49:33;101220.78;;;10.23;100.00
63115;BME280;49208;50.874;6.466;2023-02-17T19:51:59;101224.31;;;10.24;100.00
63115;BME280;49208;50.874;6.466;2023-02-17T19:54:24;101234.94;;;10.24;100.00
63115;BME280;49208;50.874;6.466;2023-02-17T19:56:50;101237.59;;;10.24;100.00
63115;BME280;49208;50.874;6.466;2023-02-17T19:59:15;101243.78;;;10.26;100.00
63115;BME280;49208;50.874;6.466;2023-02-17T20:01:40;101225.16;;;10.24;100.00
63115;BME280;49208;50.874;6.466;2023-02-17T20:04:06;101236.69;;;10.25;100.00
63115;BME280;49208;50.874;6.466;2023-02-17T20:06:43;101236.69;;;10.25;100.00
63115;BME280;49208;50.874;6.466;2023-02-17T20:09:13;101242.06;;;10.22;100.00
63115;BME280;49208;50.874;6.466;2023-02-17T20:11:39;101237.72;;;10.18;100.00
63115;BME280;49208;50.874;6.466;2023-02-17T20:14:05;101249.22;;;10.20;100.00
63115;BME280;49208;50.874;6.466;2023-02-17T20:16:31;101238.59;;;10.18;100.00
63115;BME280;49208;50.874;6.466;2023-02-17T20:18:59;101251.91;;;10.18;100.00
63115;BME280;49208;50.874;6.466;2023-02-17T20:21:26;101254.59;;;10.17;100.00
63115;BME280;49208;50.874;6.466;2023-02-17T20:23:53;101250.19;;;10.16;100.00
63115;BME280;49208;50.874;6.466;2023-02-17T20:26:24;101245.81;;;10.13;100.00
63115;BME280;49208;50.874;6.466;2023-02-17T20:28:50;101239.56;;;10.14;100.00
63115;BME280;49208;50.874;6.466;2023-02-17T20:31:16;101251.09;;;10.15;100.00
63115;BME280;49208;50.874;6.466;2023-02-17T20:33:43;101240.41;;;10.18;100.00
63115;BME280;49208;50.874;6.466;2023-02-17T20:36:09;101243.06;;;10.16;100.00
63115;BME280;49208;50.874;6.466;2023-02-17T20:38:37;101248.41;;;10.16;100.00
63115;BME280;49208;50.874;6.466;2023-02-17T20:41:03;101255.44;;;10.19;100.00
63115;BME280;49208;50.874;6.466;2023-02-17T20:43:29;101246.59;;;10.17;100.00
63115;BME280;49208;50.874;6.466;2023-02-17T20:45:55;101253.75;;;10.15;100.00
63115;BME280;49208;50.874;6.466;2023-02-17T20:48:21;101250.22;;;10.14;100.00
63115;BME280;49208;50.874;6.466;2023-02-17T20:50:55;101252.00;;;10.14;100.00